Flight Track Log - Related Links

Times and Time Zones

All times are in EDT time to prevent confusion due to time zone crossing. See the KAP927 flight status page for this flight to view local times or setup timezone preferences in your user account.

Time Position Orientation Groundspeed Altitude Reporting Facility
EDT Latitude Longitude Course Direction KTS MPH feet Rate Location/Type
Sat 07:09:32 AM 44.5019 -75.2547 149° Southeast 154 177 4,900  Level Boston Center
Sat 07:10:32 AM 44.4694 -75.2269 149° Southeast 148 170 5,600 650 Climbing Boston Center
Sat 07:11:32 AM 44.4386 -75.2022 150° Southeast 137 158 6,200 550 Climbing Boston Center
Sat 07:12:32 AM 44.4039 -75.1717 148° Southeast 137 158 6,700 550 Climbing Boston Center
Sat 07:13:32 AM 44.3692 -75.1439 150° Southeast 137 158 7,300 400 Climbing Boston Center
Sat 07:14:00 AM 44.4806 -75.2862 149° Southeast  Level Estimated
Sat 07:14:32 AM 44.3344 -75.1103 145° Southeast 142 163 7,500  Level Boston Center
Sat 07:15:32 AM 44.2936 -75.0794 152° Southeast 148 170 7,600 50 Climbing Boston Center
Sat 07:16:32 AM 44.2528 -75.0458 149° Southeast 161 185 7,600  Level Boston Center
Sat 07:17:32 AM 44.2097 -75.0092 149° Southeast 173 199 7,600  Level Boston Center
Sat 07:18:32 AM 44.1689 -74.9697 145° Southeast 179 206 7,600 -50 Level Boston Center
Sat 07:19:32 AM 44.1278 -74.9392 152° Southeast 179 206 7,500  Descending Boston Center
Sat 07:20:32 AM 44.0889 -74.9058 148° Southeast 179 206 7,600 50 Climbing Boston Center
Sat 07:21:32 AM 44.0481 -74.8722 149° Southeast 179 206 7,600  Level Boston Center
Sat 07:22:32 AM 44.0072 -74.8389 150° Southeast 179 206 7,600  Level Boston Center
Sat 07:23:32 AM 43.9681 -74.8056 149° Southeast 174 200 7,600  Level Boston Center
Sat 07:24:32 AM 43.9272 -74.7722 150° Southeast 174 200 7,600  Level Boston Center
Sat 07:25:32 AM 43.8883 -74.7389 148° Southeast 174 200 7,600  Level Boston Center
Sat 07:26:32 AM 43.8556 -74.7119 149° Southeast 174 200 7,600  Level Boston Center
Sat 07:27:32 AM 43.8061 -74.6725 150° Southeast 174 200 7,600  Level Boston Center
Sat 07:28:32 AM 43.7672 -74.6367 146° Southeast 174 200 7,600  Level Boston Center
Sat 07:29:32 AM 43.7261 -74.6036 150° Southeast 174 200 7,600  Level Boston Center
Sat 07:30:32 AM 43.6872 -74.5706 148° Southeast 174 200 7,600  Level Boston Center
Sat 07:31:32 AM 43.6461 -74.5347 148° Southeast 174 200 7,600  Level Boston Center
Sat 07:32:32 AM 43.6053 -74.5017 150° Southeast 174 200 7,600  Level Boston Center
Sat 07:33:32 AM 43.5639 -74.4717 152° Southeast 174 200 7,600  Level Boston Center
Sat 07:34:32 AM 43.5250 -74.4389 149° Southeast 174 200 7,600  Level Boston Center
Sat 07:35:32 AM 43.4858 -74.4061 149° Southeast 174 200 7,600 55 Level Boston Center
Sat 07:36:21 AM 43.4489 -74.3733 147° Southeast 167 192 7,700 58 Climbing Boston Center
Sat 07:37:15 AM 43.4142 -74.3436 148° Southeast 167 192 7,700 -85 Level Boston Center
Sat 07:37:32 AM 43.4058 -74.3378 153° Southeast 174 200 7,600  Descending Boston Center
Sat 07:38:16 AM 43.3708 -74.3139 154° Southeast 168 193 7,700  Climbing Boston Center
Sat 07:38:32 AM 43.3606 -74.3019 140° Southeast 174 200 7,600 -90 Descending Boston Center
Sat 07:39:23 AM 43.3278 -74.2753 149° Southeast 171 197 7,600  Level Boston Center
Sat 07:40:23 AM 43.2844 -74.2397 149° Southeast 171 197 7,600  Level Boston Center
Sat 07:41:18 AM 43.2494 -74.2075 146° Southeast 173 199 7,600 -207 Level Boston Center
Sat 07:42:19 AM 43.2042 -74.1747 152° Southeast 177 204 7,200 -397 Descending Boston Center
Sat 07:43:19 AM 43.1589 -74.1364 148° Southeast 188 216 6,800 -417 Descending Boston Center
Sat 07:44:14 AM 43.1178 -74.1042 150° Southeast 187 215 6,400 -575 Descending Boston Center
Sat 07:44:32 AM 43.1053 -74.0925 146° Southeast 184 212 6,100 -500 Descending Boston Center
Sat 07:45:14 AM 43.0744 -74.0689 151° Southeast 183 211 5,900 -500 Descending Boston Center
Sat 07:45:32 AM 43.0622 -74.0569 144° Southeast 179 206 5,600 -545 Descending Boston Center
Sat 07:46:09 AM 43.0353 -74.0364 151° Southeast 179 206 5,400 -400 Descending Boston Center
Sat 07:46:32 AM 43.0189 -74.0247 153° Southeast 179 206 5,200 -448 Descending Boston Center
Sat 07:47:16 AM 42.9878 -74.0069 157° South 178 205 4,900 -600 Descending Boston Center
Sat 07:47:32 AM 42.9753 -73.9953 146° Southeast 179 206 4,600 -553 Descending Boston Center
Sat 07:48:32 AM 42.9300 -73.9658 155° Southeast 179 206 4,200 -486 Descending Boston Center
Sat 07:49:23 AM 42.8928 -73.9308 145° Southeast 185 213 3,700 -536 Descending Boston Center
Sat 07:50:24 AM 42.8558 -73.8872 139° Southeast 187 215 3,200 -645 Descending Boston Center
Sat 07:51:24 AM 42.8211 -73.8383 134° Southeast 174 200 2,400 -942 Descending Boston Center
Sat 07:52:25 AM 42.7881 -73.8094 147° Southeast 134 154 1,300 -1,082 Descending Boston Center
Sat 07:54:00 AM 42.7491 -73.8020 160° South  Level Estimated
Sat 08:01:00 AM 42.7491 -73.8020 160° South  Level Estimated
Sat 08:02:00 AM 42.7491 -73.8020 160° South  Level Estimated
Sat 08:03:00 AM 42.7491 -73.8020 160° South  Level Estimated
Sat 08:04:00 AM 42.7491 -73.8020 160° South  Level Estimated

Login

Don't have an account? Register now (free) for customized features, flight alerts, and more!